createdAt,value
2018-08-03T00:00:07.214Z,23.95
2018-08-03T00:02:36.473Z,23.95
2018-08-03T00:05:05.508Z,23.81
2018-08-03T00:07:34.430Z,23.75
2018-08-03T00:10:03.625Z,23.75
2018-08-03T00:12:32.635Z,23.68
2018-08-03T00:15:01.696Z,23.59
2018-08-03T00:17:30.494Z,23.71
2018-08-03T00:19:59.292Z,23.72
2018-08-03T00:22:28.509Z,23.66
2018-08-03T00:24:57.662Z,23.70
2018-08-03T00:27:27.011Z,23.72
2018-08-03T00:29:56.258Z,23.58
2018-08-03T00:32:25.599Z,23.42
2018-08-03T00:34:54.558Z,23.21
2018-08-03T00:37:23.802Z,23.24
2018-08-03T00:39:53.376Z,23.23
2018-08-03T00:42:22.552Z,23.21
2018-08-03T00:44:51.703Z,23.00
2018-08-03T00:47:20.769Z,23.08
2018-08-03T00:49:49.802Z,22.99
2018-08-03T00:52:18.846Z,22.98
2018-08-03T00:54:47.975Z,22.92
2018-08-03T00:57:17.006Z,22.93
2018-08-03T00:59:45.989Z,23.19
2018-08-03T01:02:15.051Z,22.98
2018-08-03T01:04:44.202Z,22.77
2018-08-03T01:07:13.430Z,22.62
2018-08-03T01:09:42.342Z,22.59
2018-08-03T01:12:11.359Z,22.63
2018-08-03T01:14:40.661Z,22.55
2018-08-03T01:17:09.751Z,22.38
2018-08-03T01:19:38.673Z,22.48
2018-08-03T01:22:07.982Z,22.55
2018-08-03T01:24:36.843Z,22.46
2018-08-03T01:27:05.852Z,22.46
2018-08-03T01:29:34.762Z,22.36
2018-08-03T01:32:03.988Z,22.30
2018-08-03T01:34:33.118Z,22.20
2018-08-03T01:37:02.361Z,22.31
2018-08-03T01:39:31.603Z,22.34
2018-08-03T01:42:00.742Z,22.26
2018-08-03T01:44:29.599Z,22.18
2018-08-03T01:46:58.599Z,22.15
2018-08-03T01:49:27.821Z,21.98
2018-08-03T01:51:57.073Z,22.13
2018-08-03T01:54:26.239Z,22.10
2018-08-03T01:56:55.282Z,22.17
2018-08-03T01:59:24.356Z,22.26
2018-08-03T02:01:53.311Z,22.10
2018-08-03T02:04:22.586Z,22.08
2018-08-03T02:06:51.844Z,22.18
2018-08-03T02:09:20.992Z,22.12
2018-08-03T02:11:50.134Z,22.07
2018-08-03T02:14:19.282Z,22.03
2018-08-03T02:16:48.426Z,22.10
2018-08-03T02:19:17.689Z,22.06
2018-08-03T02:21:46.450Z,21.93
2018-08-03T02:24:15.382Z,21.99
2018-08-03T02:26:44.458Z,22.01
2018-08-03T02:29:13.602Z,22.08
2018-08-03T02:31:42.469Z,22.11
2018-08-03T02:34:11.689Z,22.14
2018-08-03T02:36:40.823Z,22.09
2018-08-03T02:39:11.410Z,22.06
2018-08-03T02:41:40.610Z,22.16
2018-08-03T02:44:10.311Z,22.20
2018-08-03T02:46:39.476Z,22.14
2018-08-03T02:49:08.530Z,22.09
2018-08-03T02:51:37.247Z,22.07
2018-08-03T02:54:06.231Z,21.94
2018-08-03T02:56:35.182Z,21.97
2018-08-03T02:59:04.341Z,22.03
2018-08-03T03:01:33.410Z,22.14
2018-08-03T03:04:02.575Z,22.20
2018-08-03T03:06:31.742Z,22.35
2018-08-03T03:09:00.984Z,22.38
2018-08-03T03:11:30.238Z,22.42
2018-08-03T03:13:59.381Z,22.33
2018-08-03T03:16:28.658Z,22.34
2018-08-03T03:18:57.750Z,22.43
2018-08-03T03:23:54.363Z,22.61
2018-08-03T03:26:23.375Z,22.58
2018-08-03T03:28:52.946Z,22.52
2018-08-03T03:31:22.140Z,22.59
2018-08-03T03:33:51.377Z,22.64
2018-08-03T03:36:20.525Z,22.65
2018-08-03T03:38:49.333Z,22.67
2018-08-03T03:41:18.343Z,22.72
2018-08-03T03:43:47.501Z,22.65
2018-08-03T03:46:16.390Z,22.57
2018-08-03T03:48:45.638Z,22.62
2018-08-03T03:51:14.854Z,22.61
2018-08-03T03:53:43.901Z,22.54
2018-08-03T03:56:13.260Z,22.66
2018-08-03T03:58:42.884Z,22.73
2018-08-03T04:01:11.815Z,22.89
2018-08-03T04:03:40.951Z,22.92
2018-08-03T04:06:10.028Z,22.79
2018-08-03T04:08:38.947Z,22.82
2018-08-03T04:11:08.028Z,23.03
2018-08-03T04:13:37.017Z,22.86
2018-08-03T04:16:06.387Z,22.89
2018-08-03T04:18:35.369Z,23.05
2018-08-03T04:21:04.271Z,23.21
2018-08-03T04:23:33.435Z,23.20
2018-08-03T04:26:02.354Z,23.33
2018-08-03T04:28:31.146Z,23.44
2018-08-03T04:31:00.400Z,23.54
2018-08-03T04:33:29.338Z,23.65
2018-08-03T04:35:58.666Z,23.72
2018-08-03T04:38:27.840Z,23.83
2018-08-03T04:40:56.786Z,23.88
2018-08-03T04:43:25.818Z,23.81
2018-08-03T04:45:54.971Z,23.85
2018-08-03T04:48:24.167Z,23.98
2018-08-03T04:50:53.082Z,23.95
2018-08-03T04:53:22.186Z,23.93
2018-08-03T04:55:51.313Z,24.02
2018-08-03T04:58:20.133Z,24.14
2018-08-03T05:00:49.028Z,24.33
2018-08-03T05:03:18.154Z,24.48
2018-08-03T05:05:47.186Z,24.66
2018-08-03T05:08:16.239Z,24.78
2018-08-03T05:10:45.686Z,24.97
2018-08-03T05:13:14.961Z,25.10
2018-08-03T05:15:43.945Z,25.06
2018-08-03T05:18:13.146Z,25.05
2018-08-03T05:20:42.257Z,24.83
2018-08-03T05:23:11.338Z,24.75
2018-08-03T05:25:40.315Z,24.78
2018-08-03T05:28:09.454Z,24.83
2018-08-03T05:30:38.270Z,24.87
2018-08-03T05:33:07.282Z,24.99
2018-08-03T05:35:36.473Z,24.98
2018-08-03T05:38:05.433Z,25.04
2018-08-03T05:40:34.733Z,25.07
2018-08-03T05:43:03.914Z,25.18
2018-08-03T05:45:33.262Z,25.27
2018-08-03T05:48:02.322Z,25.44
2018-08-03T05:50:31.126Z,25.57
2018-08-03T05:53:00.383Z,25.67
2018-08-03T05:55:29.677Z,25.72
2018-08-03T05:57:59.898Z,25.73
2018-08-03T06:00:29.006Z,25.83
2018-08-03T06:02:58.376Z,25.91
2018-08-03T06:05:27.553Z,26.00
2018-08-03T06:07:56.399Z,26.15
2018-08-03T06:10:25.431Z,26.19
2018-08-03T06:12:54.620Z,26.05
2018-08-03T06:15:23.389Z,25.92
2018-08-03T06:17:52.450Z,25.96
2018-08-03T06:20:21.310Z,25.84
2018-08-03T06:22:50.370Z,25.77
2018-08-03T06:25:19.198Z,25.63
2018-08-03T06:27:48.027Z,25.58
2018-08-03T06:30:16.986Z,25.57
2018-08-03T06:32:45.842Z,25.53
2018-08-03T06:35:15.039Z,25.50
2018-08-03T06:37:44.293Z,25.65
2018-08-03T06:40:13.238Z,25.76
2018-08-03T06:42:42.587Z,25.81
2018-08-03T06:45:11.883Z,25.93
2018-08-03T06:47:40.964Z,26.11
2018-08-03T06:50:10.279Z,26.12
2018-08-03T06:52:39.302Z,26.14
2018-08-03T06:55:08.678Z,26.13
2018-08-03T06:57:37.667Z,25.99
2018-08-03T07:00:07.547Z,25.96
2018-08-03T07:02:36.471Z,25.99
2018-08-03T07:05:05.670Z,25.97
2018-08-03T07:07:34.783Z,26.03
2018-08-03T07:10:03.854Z,26.10
2018-08-03T07:12:32.712Z,26.26
2018-08-03T07:15:02.092Z,26.45
2018-08-03T07:17:31.043Z,26.64
2018-08-03T07:20:00.290Z,26.86
2018-08-03T07:22:29.131Z,26.95
2018-08-03T07:24:57.940Z,26.95
2018-08-03T07:27:26.759Z,26.62
2018-08-03T07:29:55.594Z,26.37
2018-08-03T07:32:24.673Z,26.07
2018-08-03T07:34:53.917Z,25.92
2018-08-03T07:37:22.696Z,26.03
2018-08-03T07:39:51.726Z,26.25
2018-08-03T07:42:20.783Z,26.37
2018-08-03T07:44:49.912Z,26.31
2018-08-03T07:47:19.082Z,26.48
2018-08-03T07:49:48.342Z,26.47
2018-08-03T07:52:17.223Z,26.61
2018-08-03T07:54:46.270Z,26.76
2018-08-03T07:57:15.472Z,26.87
2018-08-03T07:59:44.602Z,26.98
2018-08-03T08:02:13.868Z,26.96
2018-08-03T08:04:43.203Z,27.15
2018-08-03T08:07:11.955Z,27.19
2018-08-03T08:09:41.343Z,27.22
2018-08-03T08:12:10.291Z,27.28
2018-08-03T08:14:39.418Z,27.44
2018-08-03T08:17:08.583Z,27.67
2018-08-03T08:19:37.626Z,27.64
2018-08-03T08:22:06.848Z,27.40
2018-08-03T08:24:36.011Z,27.32
2018-08-03T08:27:06.035Z,27.40
2018-08-03T08:29:35.180Z,27.50
2018-08-03T08:32:04.318Z,27.67
2018-08-03T08:34:33.454Z,27.78
2018-08-03T08:37:02.608Z,27.88
2018-08-03T08:39:31.805Z,27.97
2018-08-03T08:42:01.047Z,28.13
2018-08-03T08:44:29.989Z,28.34
2018-08-03T08:46:59.028Z,28.49
2018-08-03T08:49:28.030Z,28.51
2018-08-03T08:51:57.066Z,28.67
2018-08-03T08:54:26.156Z,28.79
2018-08-03T08:56:55.359Z,28.86
2018-08-03T08:59:24.543Z,28.95
2018-08-03T09:01:53.659Z,29.20
2018-08-03T09:04:22.841Z,29.49
2018-08-03T09:06:52.143Z,29.93
2018-08-03T09:09:21.229Z,30.49
2018-08-03T09:11:50.237Z,31.18
2018-08-03T09:14:19.425Z,31.85
2018-08-03T09:16:48.318Z,32.77
2018-08-03T09:19:18.439Z,33.78
2018-08-03T09:21:47.737Z,34.80
2018-08-03T09:24:16.968Z,36.02
2018-08-03T09:26:45.720Z,37.14
2018-08-03T09:29:14.910Z,38.35
2018-08-03T09:31:43.942Z,39.05
2018-08-03T09:34:13.275Z,39.79
2018-08-03T09:36:42.312Z,41.00
2018-08-03T09:39:11.775Z,42.00
2018-08-03T09:41:41.015Z,42.62
2018-08-03T09:44:10.249Z,43.09
2018-08-03T09:46:39.203Z,43.30
2018-08-03T09:49:08.858Z,44.23
2018-08-03T09:51:37.924Z,45.07
2018-08-03T09:54:07.046Z,45.38
2018-08-03T09:56:36.170Z,45.70
2018-08-03T09:59:05.482Z,46.58
2018-08-03T10:01:34.702Z,47.50
2018-08-03T10:04:03.673Z,47.99
2018-08-03T10:06:32.815Z,47.99
2018-08-03T10:09:02.067Z,46.69
2018-08-03T10:11:31.116Z,46.61
2018-08-03T10:14:00.250Z,46.80
2018-08-03T10:16:29.494Z,47.36
2018-08-03T10:18:58.649Z,48.16
2018-08-03T10:21:27.790Z,48.53
2018-08-03T10:23:57.094Z,49.21
2018-08-03T10:26:26.174Z,49.73
2018-08-03T10:28:55.303Z,48.84
2018-08-03T10:31:24.569Z,48.66
2018-08-03T10:33:54.117Z,49.03
2018-08-03T10:36:23.370Z,49.23
2018-08-03T10:38:52.725Z,49.86
2018-08-03T10:41:21.564Z,49.97
2018-08-03T10:43:50.506Z,50.31
2018-08-03T10:46:19.671Z,50.30
2018-08-03T10:48:48.668Z,50.41
2018-08-03T10:51:17.717Z,49.73
2018-08-03T10:53:47.008Z,48.16
2018-08-03T10:56:16.605Z,48.38
2018-08-03T10:58:45.558Z,47.72
2018-08-03T11:01:14.713Z,46.14
2018-08-03T11:03:43.694Z,46.92
2018-08-03T11:06:13.074Z,48.10
2018-08-03T11:08:41.883Z,49.23
2018-08-03T11:11:10.956Z,49.76
2018-08-03T11:13:40.205Z,50.16
2018-08-03T11:16:09.354Z,50.27
2018-08-03T11:18:38.433Z,50.29
2018-08-03T11:21:07.330Z,50.46
2018-08-03T11:23:36.554Z,50.55
2018-08-03T11:26:05.383Z,50.67
2018-08-03T11:28:34.505Z,50.33
2018-08-03T11:31:03.779Z,50.46
2018-08-03T11:33:33.012Z,50.64
2018-08-03T11:36:01.794Z,50.72
2018-08-03T11:38:30.711Z,50.94
2018-08-03T11:40:59.926Z,50.60
2018-08-03T11:43:29.376Z,50.98
2018-08-03T11:45:58.615Z,51.25
2018-08-03T11:48:27.565Z,50.83
2018-08-03T11:50:56.548Z,50.64
2018-08-03T11:53:25.511Z,50.71
2018-08-03T11:55:54.794Z,50.75
2018-08-03T11:58:23.716Z,50.67
2018-08-03T12:00:52.914Z,50.51
2018-08-03T12:03:22.047Z,49.74
2018-08-03T12:05:51.395Z,49.11
2018-08-03T12:08:20.648Z,49.05
2018-08-03T12:10:49.513Z,49.72
2018-08-03T12:13:18.770Z,50.03
2018-08-03T12:15:47.592Z,50.41
2018-08-03T12:18:16.849Z,50.76
2018-08-03T12:20:46.984Z,50.91
2018-08-03T12:23:15.966Z,50.98
2018-08-03T12:25:45.095Z,51.27
2018-08-03T12:28:14.306Z,51.30
2018-08-03T12:30:43.643Z,51.33
2018-08-03T12:33:12.916Z,51.41
2018-08-03T12:35:42.152Z,51.24
2018-08-03T12:38:10.840Z,48.64
2018-08-03T12:40:39.903Z,46.52
2018-08-03T12:43:09.036Z,45.23
2018-08-03T12:45:38.171Z,47.28
2018-08-03T12:48:07.027Z,48.09
2018-08-03T12:50:36.144Z,48.52
2018-08-03T12:53:05.143Z,48.41
2018-08-03T12:55:34.046Z,47.95
2018-08-03T12:58:02.995Z,48.31
2018-08-03T13:00:32.020Z,48.25
2018-08-03T13:03:01.267Z,48.51
2018-08-03T13:05:30.255Z,48.74
2018-08-03T13:07:59.418Z,49.17
2018-08-03T13:10:28.088Z,49.53
2018-08-03T13:12:57.438Z,49.22
2018-08-03T13:15:26.486Z,47.87
2018-08-03T13:17:55.439Z,47.99
2018-08-03T13:20:24.630Z,48.30
2018-08-03T13:22:59.589Z,47.63
2018-08-03T13:25:28.642Z,46.84
2018-08-03T13:27:57.766Z,46.36
2018-08-03T13:30:26.739Z,45.58
2018-08-03T13:32:55.660Z,45.44
2018-08-03T13:35:24.837Z,44.28
2018-08-03T13:37:54.016Z,42.33
2018-08-03T13:40:23.064Z,40.25
2018-08-03T13:42:51.940Z,39.56
2018-08-03T13:45:20.901Z,38.30
2018-08-03T13:47:50.020Z,37.01
2018-08-03T13:50:19.069Z,36.80
2018-08-03T13:52:47.918Z,37.43
2018-08-03T13:55:16.971Z,38.48
2018-08-03T13:57:46.160Z,38.34
2018-08-03T14:00:15.302Z,38.21
2018-08-03T14:02:44.806Z,38.73
2018-08-03T14:05:13.802Z,38.74
2018-08-03T14:07:43.085Z,38.32
2018-08-03T14:10:12.148Z,37.52
2018-08-03T14:12:41.271Z,36.46
2018-08-03T14:15:10.464Z,35.54
2018-08-03T14:17:39.682Z,34.89
2018-08-03T14:20:08.922Z,34.65
2018-08-03T14:22:38.044Z,34.39
2018-08-03T14:25:07.056Z,33.99
2018-08-03T14:27:36.280Z,33.35
2018-08-03T14:30:05.881Z,32.56
2018-08-03T14:32:34.819Z,31.84
2018-08-03T14:35:04.024Z,32.24
2018-08-03T14:37:33.314Z,32.67
2018-08-03T14:40:02.328Z,32.60
2018-08-03T14:42:31.132Z,32.78
2018-08-03T14:45:00.020Z,32.88
2018-08-03T14:47:29.259Z,33.04
2018-08-03T14:49:58.554Z,33.18
2018-08-03T14:52:27.822Z,33.39
2018-08-03T14:54:56.854Z,33.25
2018-08-03T14:57:25.946Z,32.79
2018-08-03T14:59:54.889Z,32.50
2018-08-03T15:02:23.939Z,32.57
2018-08-03T15:04:52.990Z,32.30
2018-08-03T15:07:22.074Z,32.32
2018-08-03T15:09:51.404Z,32.33
2018-08-03T15:12:20.482Z,32.25
2018-08-03T15:14:49.449Z,32.00
2018-08-03T15:17:18.252Z,31.75
2018-08-03T15:19:47.501Z,31.82
2018-08-03T15:22:16.728Z,31.81
2018-08-03T15:24:45.753Z,31.96
2018-08-03T15:27:14.730Z,31.87
2018-08-03T15:29:43.559Z,31.92
2018-08-03T15:32:12.335Z,31.88
2018-08-03T15:34:41.533Z,31.83
2018-08-03T15:37:10.627Z,31.91
2018-08-03T15:39:39.934Z,31.90
2018-08-03T15:42:09.078Z,31.71
2018-08-03T15:44:38.321Z,31.73
2018-08-03T15:47:07.104Z,31.68
2018-08-03T15:49:36.307Z,31.65
2018-08-03T15:52:05.518Z,31.54
2018-08-03T15:54:34.766Z,31.29
2018-08-03T15:57:04.119Z,31.32
2018-08-03T15:59:32.912Z,31.46
2018-08-03T16:02:02.155Z,31.32
2018-08-03T16:04:31.322Z,31.28
2018-08-03T16:07:00.438Z,31.21
2018-08-03T16:09:29.520Z,31.13
2018-08-03T16:11:58.615Z,30.99
2018-08-03T16:14:27.909Z,30.90
2018-08-03T16:16:56.977Z,30.85
2018-08-03T16:19:25.846Z,30.60
2018-08-03T16:21:54.734Z,30.68
2018-08-03T16:24:23.810Z,30.65
2018-08-03T16:26:52.943Z,30.59
2018-08-03T16:29:22.031Z,30.71
2018-08-03T16:31:50.970Z,30.73
2018-08-03T16:34:19.839Z,30.64
2018-08-03T16:36:48.691Z,30.65
2018-08-03T16:39:17.965Z,30.68
2018-08-03T16:41:47.205Z,30.67
2018-08-03T16:44:16.240Z,30.38
2018-08-03T16:46:45.566Z,30.18
2018-08-03T16:49:14.531Z,30.08
2018-08-03T16:51:43.762Z,30.02
2018-08-03T16:54:12.753Z,29.93
2018-08-03T16:56:41.902Z,30.00
2018-08-03T16:59:11.050Z,29.91
2018-08-03T17:01:40.151Z,29.75
2018-08-03T17:04:08.883Z,29.74
2018-08-03T17:06:38.073Z,29.75
2018-08-03T17:09:09.422Z,29.53
2018-08-03T17:11:38.426Z,29.51
2018-08-03T17:14:07.759Z,29.33
2018-08-03T17:16:36.887Z,29.18
2018-08-03T17:19:05.852Z,28.92
2018-08-03T17:21:35.150Z,28.43
2018-08-03T17:24:04.035Z,28.02
2018-08-03T17:26:33.025Z,27.79
2018-08-03T17:29:01.876Z,27.45
2018-08-03T17:31:31.060Z,27.26
2018-08-03T17:34:00.003Z,27.13
2018-08-03T17:36:29.168Z,27.09
2018-08-03T17:38:58.056Z,26.90
2018-08-03T17:41:26.956Z,26.84
2018-08-03T17:43:55.810Z,26.72
2018-08-03T17:46:24.758Z,26.56
2018-08-03T17:48:54.467Z,26.47
2018-08-03T17:51:23.726Z,26.48
2018-08-03T17:53:52.958Z,26.51
2018-08-03T17:56:22.224Z,26.47
2018-08-03T17:58:51.039Z,26.45
2018-08-03T18:01:20.323Z,26.42
2018-08-03T18:03:49.343Z,26.36
2018-08-03T18:06:18.494Z,26.42
2018-08-03T18:08:47.730Z,26.42
2018-08-03T18:11:16.816Z,26.43
2018-08-03T18:13:46.010Z,26.39
2018-08-03T18:16:14.767Z,26.35
2018-08-03T18:18:43.914Z,26.39
2018-08-03T18:21:13.024Z,26.38
2018-08-03T18:23:42.304Z,26.42
2018-08-03T18:26:11.581Z,26.34
2018-08-03T18:28:40.754Z,26.19
2018-08-03T18:31:09.998Z,26.33
2018-08-03T18:33:39.255Z,26.34
2018-08-03T18:36:08.232Z,26.34
2018-08-03T18:38:37.239Z,26.30
2018-08-03T18:41:06.462Z,26.29
2018-08-03T18:43:35.895Z,26.29
2018-08-03T18:46:04.824Z,26.34
2018-08-03T18:48:34.014Z,26.30
2018-08-03T18:51:03.263Z,26.29
2018-08-03T18:53:32.094Z,26.21
2018-08-03T18:56:01.280Z,26.14
2018-08-03T18:58:30.478Z,26.07
2018-08-03T19:00:59.594Z,26.15
2018-08-03T19:03:28.898Z,26.15
2018-08-03T19:05:58.126Z,26.06
2018-08-03T19:08:27.183Z,26.19
2018-08-03T19:10:56.372Z,26.24
2018-08-03T19:13:25.432Z,26.25
2018-08-03T19:15:54.574Z,26.33
2018-08-03T19:18:23.802Z,26.36
2018-08-03T19:20:53.059Z,26.42
2018-08-03T19:23:22.408Z,26.49
2018-08-03T19:25:51.239Z,26.56
2018-08-03T19:28:20.423Z,26.54
2018-08-03T19:30:49.320Z,26.56
2018-08-03T19:33:18.334Z,26.49
2018-08-03T19:35:47.538Z,26.56
2018-08-03T19:38:16.837Z,26.63
2018-08-03T19:40:45.655Z,26.54
2018-08-03T19:43:14.927Z,26.60
2018-08-03T19:45:43.961Z,26.69
2018-08-03T19:48:13.225Z,26.68
2018-08-03T19:50:42.575Z,26.62
2018-08-03T19:53:11.461Z,26.70
2018-08-03T19:55:40.579Z,26.63
2018-08-03T19:58:09.620Z,26.52
2018-08-03T20:00:38.762Z,26.54
2018-08-03T20:03:08.059Z,26.49
2018-08-03T20:05:37.453Z,26.51
2018-08-03T20:08:06.994Z,26.58
2018-08-03T20:10:36.175Z,26.69
2018-08-03T20:13:05.319Z,26.68
2018-08-03T20:15:34.224Z,26.68
2018-08-03T20:18:03.475Z,26.66
2018-08-03T20:20:32.867Z,26.47
2018-08-03T20:23:02.180Z,26.39
2018-08-03T20:25:31.406Z,26.51
2018-08-03T20:28:00.336Z,26.50
2018-08-03T20:30:29.323Z,26.25
2018-08-03T20:32:58.459Z,26.29
2018-08-03T20:35:27.770Z,26.19
2018-08-03T20:37:56.771Z,26.18
2018-08-03T20:40:25.971Z,26.25
2018-08-03T20:42:55.266Z,26.23
2018-08-03T20:45:24.081Z,26.25
2018-08-03T20:47:52.895Z,26.21
2018-08-03T20:50:22.223Z,26.11
2018-08-03T20:52:51.474Z,26.02
2018-08-03T20:55:20.687Z,25.99
2018-08-03T20:57:49.756Z,25.97
2018-08-03T21:00:18.514Z,26.01
2018-08-03T21:02:47.456Z,25.95
2018-08-03T21:05:16.506Z,25.81
2018-08-03T21:07:45.587Z,25.96
2018-08-03T21:10:14.858Z,25.93
2018-08-03T21:12:44.032Z,25.88
2018-08-03T21:15:13.359Z,25.94
2018-08-03T21:17:42.246Z,25.93
2018-08-03T21:20:11.292Z,25.85
2018-08-03T21:22:40.492Z,25.84
2018-08-03T21:25:09.647Z,25.94
2018-08-03T21:27:38.801Z,25.96
2018-08-03T21:30:09.453Z,25.92
2018-08-03T21:32:38.484Z,25.95
2018-08-03T21:35:07.807Z,25.88
2018-08-03T21:37:36.703Z,25.88
2018-08-03T21:40:06.351Z,25.81
2018-08-03T21:42:35.758Z,25.76
2018-08-03T21:45:05.287Z,25.81
2018-08-03T21:47:34.447Z,25.79
2018-08-03T21:50:03.618Z,25.80
2018-08-03T21:52:32.914Z,25.85
2018-08-03T21:55:01.763Z,25.93
2018-08-03T21:57:30.881Z,25.82
2018-08-03T21:59:59.885Z,25.82
2018-08-03T22:02:28.935Z,25.72
2018-08-03T22:04:57.987Z,25.67
2018-08-03T22:07:26.726Z,25.52
2018-08-03T22:09:56.223Z,25.43
2018-08-03T22:12:25.483Z,25.26
2018-08-03T22:14:54.639Z,25.09
2018-08-03T22:17:24.045Z,24.96
2018-08-03T22:19:53.031Z,24.84
2018-08-03T22:22:22.121Z,24.84
2018-08-03T22:24:51.230Z,24.97
2018-08-03T22:27:20.273Z,24.99
2018-08-03T22:29:49.552Z,24.92
2018-08-03T22:32:18.492Z,24.80
2018-08-03T22:34:47.510Z,24.73
2018-08-03T22:37:16.602Z,24.78
2018-08-03T22:39:45.707Z,24.66
2018-08-03T22:42:15.050Z,24.53
2018-08-03T22:44:44.129Z,24.36
2018-08-03T22:47:13.175Z,24.12
2018-08-03T22:49:42.241Z,23.93
2018-08-03T22:52:11.361Z,23.72
2018-08-03T22:54:40.399Z,23.64
2018-08-03T22:57:09.361Z,23.61
2018-08-03T22:59:38.502Z,23.61
2018-08-03T23:02:08.459Z,23.55
2018-08-03T23:04:38.730Z,23.49
2018-08-03T23:07:08.193Z,23.42
2018-08-03T23:09:37.281Z,23.42
2018-08-03T23:12:10.407Z,23.46
2018-08-03T23:14:39.613Z,23.40
2018-08-03T23:17:08.634Z,23.36
2018-08-03T23:19:37.812Z,23.35
2018-08-03T23:22:07.062Z,23.41
2018-08-03T23:24:36.362Z,23.41
2018-08-03T23:27:05.482Z,23.55
2018-08-03T23:29:34.496Z,23.64
2018-08-03T23:32:03.677Z,23.73
2018-08-03T23:34:32.730Z,23.77
2018-08-03T23:37:02.095Z,23.71
2018-08-03T23:39:31.233Z,23.72
2018-08-03T23:42:00.363Z,23.68
2018-08-03T23:44:29.518Z,23.65
2018-08-03T23:46:58.639Z,23.63
2018-08-03T23:49:27.651Z,23.65
2018-08-03T23:51:56.950Z,23.73
2018-08-03T23:54:26.098Z,23.77
2018-08-03T23:56:55.358Z,23.79
2018-08-03T23:59:24.042Z,23.80
